sensor_id;sensor_type;location;lat;lon;timestamp;pressure;altitude;pressure_sealevel;temperature;humidity
55044;BME280;54902;50.420;18.854;2024-01-11T00:00:23;102577.98;;;-8.56;73.58
55044;BME280;54902;50.420;18.854;2024-01-11T00:00:54;102577.09;;;-8.57;73.60
55044;BME280;54902;50.420;18.854;2024-01-11T00:01:25;102575.30;;;-8.58;73.60
55044;BME280;54902;50.420;18.854;2024-01-11T00:01:56;102576.19;;;-8.59;73.62
55044;BME280;54902;50.420;18.854;2024-01-11T00:02:27;102574.39;;;-8.60;73.60
55044;BME280;54902;50.420;18.854;2024-01-11T00:02:58;102584.95;;;-8.61;73.61
55044;BME280;54902;50.420;18.854;2024-01-11T00:03:29;102573.44;;;-8.62;73.61
55044;BME280;54902;50.420;18.854;2024-01-11T00:04:00;102577.87;;;-8.62;73.61
55044;BME280;54902;50.420;18.854;2024-01-11T00:04:30;102575.18;;;-8.63;73.62
55044;BME280;54902;50.420;18.854;2024-01-11T00:05:02;102581.34;;;-8.64;73.61
55044;BME280;54902;50.420;18.854;2024-01-11T00:05:32;102574.24;;;-8.65;73.59
55044;BME280;54902;50.420;18.854;2024-01-11T00:06:03;102574.24;;;-8.65;73.58
55044;BME280;54902;50.420;18.854;2024-01-11T00:06:40;102579.51;;;-8.67;73.57
55044;BME280;54902;50.420;18.854;2024-01-11T00:07:11;102577.72;;;-8.68;73.58
55044;BME280;54902;50.420;18.854;2024-01-11T00:07:42;102582.98;;;-8.69;73.58
55044;BME280;54902;50.420;18.854;2024-01-11T00:08:13;102573.26;;;-8.70;73.57
55044;BME280;54902;50.420;18.854;2024-01-11T00:08:44;102573.22;;;-8.72;73.56
55044;BME280;54902;50.420;18.854;2024-01-11T00:09:15;102575.84;;;-8.73;73.56
55044;BME280;54902;50.420;18.854;2024-01-11T00:09:46;102576.69;;;-8.74;73.58
55044;BME280;54902;50.420;18.854;2024-01-11T00:10:17;102574.04;;;-8.74;73.59
55044;BME280;54902;50.420;18.854;2024-01-11T00:10:48;102574.93;;;-8.75;73.58
55044;BME280;54902;50.420;18.854;2024-01-11T00:11:19;102571.34;;;-8.77;73.57
55044;BME280;54902;50.420;18.854;2024-01-11T00:11:50;102572.16;;;-8.80;73.55
55044;BME280;54902;50.420;18.854;2024-01-11T00:12:21;102575.72;;;-8.79;73.56
55044;BME280;54902;50.420;18.854;2024-01-11T00:12:51;102576.58;;;-8.80;73.53
55044;BME280;54902;50.420;18.854;2024-01-11T00:13:22;102574.78;;;-8.81;73.54
55044;BME280;54902;50.420;18.854;2024-01-11T00:13:53;102568.58;;;-8.83;73.53
55044;BME280;54902;50.420;18.854;2024-01-11T00:14:24;102572.07;;;-8.84;73.51
55044;BME280;54902;50.420;18.854;2024-01-11T00:14:55;102569.40;;;-8.86;73.50
55044;BME280;54902;50.420;18.854;2024-01-11T00:15:26;102576.43;;;-8.86;73.49
55044;BME280;54902;50.420;18.854;2024-01-11T00:15:57;102567.56;;;-8.88;73.49
55044;BME280;54902;50.420;18.854;2024-01-11T00:16:28;102576.37;;;-8.89;73.47
55044;BME280;54902;50.420;18.854;2024-01-11T00:16:59;102581.60;;;-8.92;73.46
55044;BME280;54902;50.420;18.854;2024-01-11T00:17:30;102578.04;;;-8.93;73.44
55044;BME280;54902;50.420;18.854;2024-01-11T00:18:01;102570.98;;;-8.94;73.44
55044;BME280;54902;50.420;18.854;2024-01-11T00:18:32;102565.63;;;-8.95;73.41
55044;BME280;54902;50.420;18.854;2024-01-11T00:19:03;102559.42;;;-8.97;73.42
55044;BME280;54902;50.420;18.854;2024-01-11T00:19:34;102560.28;;;-8.98;73.40
55044;BME280;54902;50.420;18.854;2024-01-11T00:20:06;102558.48;;;-8.99;73.39
55044;BME280;54902;50.420;18.854;2024-01-11T00:20:37;102557.57;;;-9.01;73.37
55044;BME280;54902;50.420;18.854;2024-01-11T00:21:08;102553.95;;;-9.05;73.36
55044;BME280;54902;50.420;18.854;2024-01-11T00:21:39;102552.16;;;-9.06;73.37
55044;BME280;54902;50.420;18.854;2024-01-11T00:22:10;102549.48;;;-9.07;73.37
55044;BME280;54902;50.420;18.854;2024-01-11T00:22:41;102548.59;;;-9.08;73.36
55044;BME280;54902;50.420;18.854;2024-01-11T00:23:12;102550.30;;;-9.10;73.37
55044;BME280;54902;50.420;18.854;2024-01-11T00:23:43;102544.13;;;-9.10;73.38
55044;BME280;54902;50.420;18.854;2024-01-11T00:24:13;102550.24;;;-9.13;73.37
55044;BME280;54902;50.420;18.854;2024-01-11T00:24:44;102544.05;;;-9.15;73.38
55044;BME280;54902;50.420;18.854;2024-01-11T00:25:15;102549.33;;;-9.15;73.39
55044;BME280;54902;50.420;18.854;2024-01-11T00:25:46;102548.39;;;-9.17;73.39
55044;BME280;54902;50.420;18.854;2024-01-11T00:26:17;102546.59;;;-9.18;73.38
55044;BME280;54902;50.420;18.854;2024-01-11T00:26:48;102550.13;;;-9.18;73.38
55044;BME280;54902;50.420;18.854;2024-01-11T00:27:19;102548.33;;;-9.19;73.40
55044;BME280;54902;50.420;18.854;2024-01-11T00:27:50;102548.30;;;-9.21;73.41
55044;BME280;54902;50.420;18.854;2024-01-11T00:28:22;102546.50;;;-9.22;73.40
55044;BME280;54902;50.420;18.854;2024-01-11T00:28:53;102544.71;;;-9.23;73.39
55044;BME280;54902;50.420;18.854;2024-01-11T00:29:24;102551.76;;;-9.23;73.39
55044;BME280;54902;50.420;18.854;2024-01-11T00:29:55;102538.50;;;-9.25;73.40
55044;BME280;54902;50.420;18.854;2024-01-11T00:30:26;102533.22;;;-9.25;73.40
55044;BME280;54902;50.420;18.854;2024-01-11T00:30:57;102540.21;;;-9.27;73.41
55044;BME280;54902;50.420;18.854;2024-01-11T00:31:28;102535.77;;;-9.28;73.39
55044;BME280;54902;50.420;18.854;2024-01-11T00:31:59;102536.65;;;-9.29;73.39
55044;BME280;54902;50.420;18.854;2024-01-11T00:32:30;102540.15;;;-9.30;73.40
55044;BME280;54902;50.420;18.854;2024-01-11T00:33:01;102541.87;;;-9.30;73.40
55044;BME280;54902;50.420;18.854;2024-01-11T00:33:32;102541.84;;;-9.32;73.39
55044;BME280;54902;50.420;18.854;2024-01-11T00:34:03;102538.32;;;-9.32;73.40
55044;BME280;54902;50.420;18.854;2024-01-11T00:34:33;102539.16;;;-9.33;73.38
55044;BME280;54902;50.420;18.854;2024-01-11T00:35:06;102532.99;;;-9.34;73.38
55044;BME280;54902;50.420;18.854;2024-01-11T00:35:37;102529.41;;;-9.36;73.39
55044;BME280;54902;50.420;18.854;2024-01-11T00:36:08;102535.59;;;-9.37;73.39
55044;BME280;54902;50.420;18.854;2024-01-11T00:36:39;102532.02;;;-9.37;73.40
55044;BME280;54902;50.420;18.854;2024-01-11T00:37:10;102530.23;;;-9.38;73.40
55044;BME280;54902;50.420;18.854;2024-01-11T00:37:41;102527.55;;;-9.40;73.40
55044;BME280;54902;50.420;18.854;2024-01-11T00:38:12;102521.38;;;-9.40;73.40
55044;BME280;54902;50.420;18.854;2024-01-11T00:38:43;102521.38;;;-9.40;73.40
55044;BME280;54902;50.420;18.854;2024-01-11T00:39:14;102524.85;;;-9.43;73.42
55044;BME280;54902;50.420;18.854;2024-01-11T00:39:45;102516.91;;;-9.43;73.45
55044;BME280;54902;50.420;18.854;2024-01-11T00:40:15;102515.13;;;-9.44;73.46
55044;BME280;54902;50.420;18.854;2024-01-11T00:40:47;102516.03;;;-9.43;73.47
55044;BME280;54902;50.420;18.854;2024-01-11T00:41:18;102515.13;;;-9.44;73.49
55044;BME280;54902;50.420;18.854;2024-01-11T00:41:48;102520.41;;;-9.44;73.51
55044;BME280;54902;50.420;18.854;2024-01-11T00:42:20;102525.70;;;-9.44;73.53
55044;BME280;54902;50.420;18.854;2024-01-11T00:42:50;102513.32;;;-9.45;73.54
55044;BME280;54902;50.420;18.854;2024-01-11T00:43:21;102521.31;;;-9.43;73.56
55044;BME280;54902;50.420;18.854;2024-01-11T00:43:53;102520.41;;;-9.44;73.57
55044;BME280;54902;50.420;18.854;2024-01-11T00:44:24;102515.13;;;-9.44;73.59
55044;BME280;54902;50.420;18.854;2024-01-11T00:44:55;102518.68;;;-9.43;73.60
55044;BME280;54902;50.420;18.854;2024-01-11T00:45:25;102509.83;;;-9.44;73.59
55044;BME280;54902;50.420;18.854;2024-01-11T00:45:56;102510.74;;;-9.43;73.62
55044;BME280;54902;50.420;18.854;2024-01-11T00:46:27;102516.91;;;-9.43;73.65
55044;BME280;54902;50.420;18.854;2024-01-11T00:46:58;102515.19;;;-9.41;73.66
55044;BME280;54902;50.420;18.854;2024-01-11T00:47:29;102510.78;;;-9.42;73.66
55044;BME280;54902;50.420;18.854;2024-01-11T00:48:00;102516.10;;;-9.40;73.69
55044;BME280;54902;50.420;18.854;2024-01-11T00:48:31;102511.68;;;-9.40;73.70
55044;BME280;54902;50.420;18.854;2024-01-11T00:49:02;102509.07;;;-9.38;73.71
55044;BME280;54902;50.420;18.854;2024-01-11T00:49:33;102517.08;;;-9.37;73.73
55044;BME280;54902;50.420;18.854;2024-01-11T00:50:04;102512.66;;;-9.36;73.76
55044;BME280;54902;50.420;18.854;2024-01-11T00:50:35;102516.19;;;-9.36;73.78
55044;BME280;54902;50.420;18.854;2024-01-11T00:51:06;102515.34;;;-9.35;73.79
55044;BME280;54902;50.420;18.854;2024-01-11T00:51:37;102517.10;;;-9.35;73.78
55044;BME280;54902;50.420;18.854;2024-01-11T00:52:08;102513.63;;;-9.33;73.80
55044;BME280;54902;50.420;18.854;2024-01-11T00:52:40;102517.19;;;-9.31;73.82
55044;BME280;54902;50.420;18.854;2024-01-11T00:53:10;102511.06;;;-9.30;73.85
55044;BME280;54902;50.420;18.854;2024-01-11T00:53:45;102512.84;;;-9.29;73.86
55044;BME280;54902;50.420;18.854;2024-01-11T00:54:16;102509.35;;;-9.26;73.88
55044;BME280;54902;50.420;18.854;2024-01-11T00:54:46;102507.62;;;-9.26;73.89
55044;BME280;54902;50.420;18.854;2024-01-11T00:55:17;102512.06;;;-9.25;73.90
55044;BME280;54902;50.420;18.854;2024-01-11T00:55:48;102514.73;;;-9.23;73.92
55044;BME280;54902;50.420;18.854;2024-01-11T00:56:20;102501.54;;;-9.22;73.92
55044;BME280;54902;50.420;18.854;2024-01-11T00:56:51;102505.09;;;-9.20;73.95
55044;BME280;54902;50.420;18.854;2024-01-11T00:57:22;102512.17;;;-9.19;73.95
55044;BME280;54902;50.420;18.854;2024-01-11T00:57:53;102507.80;;;-9.18;73.97
55044;BME280;54902;50.420;18.854;2024-01-11T00:58:24;102512.23;;;-9.16;73.97
55044;BME280;54902;50.420;18.854;2024-01-11T00:58:54;102512.29;;;-9.15;73.99
55044;BME280;54902;50.420;18.854;2024-01-11T00:59:25;102511.41;;;-9.14;74.01
55044;BME280;54902;50.420;18.854;2024-01-11T00:59:56;102508.83;;;-9.12;74.00
55044;BME280;54902;50.420;18.854;2024-01-11T01:00:27;102511.48;;;-9.12;74.01
55044;BME280;54902;50.420;18.854;2024-01-11T01:00:58;102515.91;;;-9.10;74.01
55044;BME280;54902;50.420;18.854;2024-01-11T01:01:29;102523.91;;;-9.08;74.00
55044;BME280;54902;50.420;18.854;2024-01-11T01:02:00;102512.44;;;-9.07;74.03
55044;BME280;54902;50.420;18.854;2024-01-11T01:02:31;102507.18;;;-9.06;74.04
55044;BME280;54902;50.420;18.854;2024-01-11T01:03:02;102512.54;;;-9.04;74.04
55044;BME280;54902;50.420;18.854;2024-01-11T01:03:33;102515.22;;;-9.03;74.04
55044;BME280;54902;50.420;18.854;2024-01-11T01:04:04;102512.59;;;-9.01;74.06
55044;BME280;54902;50.420;18.854;2024-01-11T01:04:38;102519.68;;;-9.00;74.08
55044;BME280;54902;50.420;18.854;2024-01-11T01:05:09;102517.95;;;-8.98;74.07
55044;BME280;54902;50.420;18.854;2024-01-11T01:05:40;102516.25;;;-8.96;74.07
55044;BME280;54902;50.420;18.854;2024-01-11T01:06:11;102516.25;;;-8.96;74.07
55044;BME280;54902;50.420;18.854;2024-01-11T01:06:42;102515.41;;;-8.94;74.10
55044;BME280;54902;50.420;18.854;2024-01-11T01:07:13;102518.09;;;-8.92;74.11
55044;BME280;54902;50.420;18.854;2024-01-11T01:07:44;102519.85;;;-8.91;74.12
55044;BME280;54902;50.420;18.854;2024-01-11T01:08:16;102519.91;;;-8.90;74.12
55044;BME280;54902;50.420;18.854;2024-01-11T01:08:47;102515.53;;;-8.88;74.14
55044;BME280;54902;50.420;18.854;2024-01-11T01:09:18;102520.85;;;-8.86;74.14
55044;BME280;54902;50.420;18.854;2024-01-11T01:09:49;102514.70;;;-8.85;74.14
55044;BME280;54902;50.420;18.854;2024-01-11T01:10:21;102518.30;;;-8.83;74.15
55044;BME280;54902;50.420;18.854;2024-01-11T01:10:52;102520.05;;;-8.82;74.15
55044;BME280;54902;50.420;18.854;2024-01-11T01:11:23;102524.50;;;-8.81;74.14
55044;BME280;54902;50.420;18.854;2024-01-11T01:11:54;102518.34;;;-8.80;74.16
55044;BME280;54902;50.420;18.854;2024-01-11T01:12:25;102520.14;;;-8.79;74.15
55044;BME280;54902;50.420;18.854;2024-01-11T01:12:55;102525.44;;;-8.79;74.16
55044;BME280;54902;50.420;18.854;2024-01-11T01:13:26;102524.57;;;-8.77;74.17
55044;BME280;54902;50.420;18.854;2024-01-11T01:13:58;102522.00;;;-8.75;74.16
55044;BME280;54902;50.420;18.854;2024-01-11T01:14:29;102532.58;;;-8.75;74.17
55044;BME280;54902;50.420;18.854;2024-01-11T01:15:00;102530.84;;;-8.73;74.18
55044;BME280;54902;50.420;18.854;2024-01-11T01:15:31;102529.12;;;-8.73;74.17
55044;BME280;54902;50.420;18.854;2024-01-11T01:16:02;102532.63;;;-8.72;74.16
55044;BME280;54902;50.420;18.854;2024-01-11T01:16:33;102527.37;;;-8.71;74.16
55044;BME280;54902;50.420;18.854;2024-01-11T01:17:03;102530.90;;;-8.70;74.15
55044;BME280;54902;50.420;18.854;2024-01-11T01:17:35;102525.60;;;-8.70;74.17
55044;BME280;54902;50.420;18.854;2024-01-11T01:18:06;102515.95;;;-8.68;74.16
55044;BME280;54902;50.420;18.854;2024-01-11T01:18:37;102528.30;;;-8.69;74.16
55044;BME280;54902;50.420;18.854;2024-01-11T01:19:08;102515.10;;;-8.67;74.15
55044;BME280;54902;50.420;18.854;2024-01-11T01:19:39;102520.40;;;-8.67;74.15
55044;BME280;54902;50.420;18.854;2024-01-11T01:20:10;102516.86;;;-8.66;74.15
55044;BME280;54902;50.420;18.854;2024-01-11T01:20:41;102512.48;;;-8.66;74.14
55044;BME280;54902;50.420;18.854;2024-01-11T01:21:12;102515.98;;;-8.67;74.12
55044;BME280;54902;50.420;18.854;2024-01-11T01:21:43;102516.92;;;-8.65;74.12
55044;BME280;54902;50.420;18.854;2024-01-11T01:22:14;102525.73;;;-8.64;74.11
55044;BME280;54902;50.420;18.854;2024-01-11T01:22:45;102518.68;;;-8.64;74.11
55044;BME280;54902;50.420;18.854;2024-01-11T01:23:16;102520.45;;;-8.64;74.11
55044;BME280;54902;50.420;18.854;2024-01-11T01:23:48;102525.73;;;-8.64;74.09
55044;BME280;54902;50.420;18.854;2024-01-11T01:24:19;102520.45;;;-8.64;74.08
55044;BME280;54902;50.420;18.854;2024-01-11T01:24:50;102520.45;;;-8.64;74.06
55044;BME280;54902;50.420;18.854;2024-01-11T01:25:21;102520.45;;;-8.64;74.06
55044;BME280;54902;50.420;18.854;2024-01-11T01:25:52;102524.88;;;-8.63;74.05
55044;BME280;54902;50.420;18.854;2024-01-11T01:26:23;102523.09;;;-8.64;74.04
55044;BME280;54902;50.420;18.854;2024-01-11T01:26:54;102514.27;;;-8.65;74.04
55044;BME280;54902;50.420;18.854;2024-01-11T01:27:24;102506.27;;;-8.66;74.03
55044;BME280;54902;50.420;18.854;2024-01-11T01:27:56;102509.83;;;-8.66;74.04
55044;BME280;54902;50.420;18.854;2024-01-11T01:28:27;102507.18;;;-8.66;74.02
55044;BME280;54902;50.420;18.854;2024-01-11T01:28:58;102514.27;;;-8.65;74.03
55044;BME280;54902;50.420;18.854;2024-01-11T01:29:29;102508.91;;;-8.66;74.02
55044;BME280;54902;50.420;18.854;2024-01-11T01:30:00;102511.56;;;-8.66;74.02
55044;BME280;54902;50.420;18.854;2024-01-11T01:30:31;102502.76;;;-8.65;74.00
55044;BME280;54902;50.420;18.854;2024-01-11T01:31:02;102507.16;;;-8.67;74.02
55044;BME280;54902;50.420;18.854;2024-01-11T01:31:33;102509.80;;;-8.67;74.01
55044;BME280;54902;50.420;18.854;2024-01-11T01:32:08;102509.80;;;-8.67;73.99
55044;BME280;54902;50.420;18.854;2024-01-11T01:32:39;102512.45;;;-8.67;74.00
55044;BME280;54902;50.420;18.854;2024-01-11T01:33:10;102505.36;;;-8.68;73.98
55044;BME280;54902;50.420;18.854;2024-01-11T01:33:40;102511.51;;;-8.69;73.98
55044;BME280;54902;50.420;18.854;2024-01-11T01:34:11;102507.98;;;-8.70;73.98
55044;BME280;54902;50.420;18.854;2024-01-11T01:34:43;102504.42;;;-8.70;73.96
55044;BME280;54902;50.420;18.854;2024-01-11T01:35:14;102504.42;;;-8.70;73.96
55044;BME280;54902;50.420;18.854;2024-01-11T01:35:45;102502.66;;;-8.71;73.94
55044;BME280;54902;50.420;18.854;2024-01-11T01:36:16;102507.92;;;-8.73;73.93
55044;BME280;54902;50.420;18.854;2024-01-11T01:36:47;102501.72;;;-8.73;73.93
55044;BME280;54902;50.420;18.854;2024-01-11T01:37:18;102504.37;;;-8.73;73.90
55044;BME280;54902;50.420;18.854;2024-01-11T01:37:49;102497.28;;;-8.74;73.91
55044;BME280;54902;50.420;18.854;2024-01-11T01:38:20;102505.20;;;-8.76;73.84
55044;BME280;54902;50.420;18.854;2024-01-11T01:38:51;102507.81;;;-8.77;73.87
55044;BME280;54902;50.420;18.854;2024-01-11T01:39:22;102495.38;;;-8.81;74.00
55044;BME280;54902;50.420;18.854;2024-01-11T01:39:53;102507.81;;;-8.77;73.83
55044;BME280;54902;50.420;18.854;2024-01-11T01:40:24;102505.12;;;-8.80;73.83
55044;BME280;54902;50.420;18.854;2024-01-11T01:40:55;102505.97;;;-8.81;73.82
55044;BME280;54902;50.420;18.854;2024-01-11T01:41:26;102502.41;;;-8.83;73.81
55044;BME280;54902;50.420;18.854;2024-01-11T01:41:57;102507.70;;;-8.83;73.81
55044;BME280;54902;50.420;18.854;2024-01-11T01:42:28;102500.65;;;-8.83;73.80
55044;BME280;54902;50.420;18.854;2024-01-11T01:42:59;102504.12;;;-8.85;73.82
55044;BME280;54902;50.420;18.854;2024-01-11T01:43:30;102497.03;;;-8.86;73.80
55044;BME280;54902;50.420;18.854;2024-01-11T01:44:01;102501.44;;;-8.87;73.79
55044;BME280;54902;50.420;18.854;2024-01-11T01:44:33;102505.86;;;-8.87;73.78
55044;BME280;54902;50.420;18.854;2024-01-11T01:45:05;102496.97;;;-8.89;73.80
55044;BME280;54902;50.420;18.854;2024-01-11T01:45:36;102501.39;;;-8.90;73.80
55044;BME280;54902;50.420;18.854;2024-01-11T01:46:07;102499.59;;;-8.91;73.80
55044;BME280;54902;50.420;18.854;2024-01-11T01:46:38;102497.80;;;-8.92;73.81
55044;BME280;54902;50.420;18.854;2024-01-11T01:47:10;102496.92;;;-8.92;73.83
55044;BME280;54902;50.420;18.854;2024-01-11T01:47:43;102499.54;;;-8.94;73.79
55044;BME280;54902;50.420;18.854;2024-01-11T01:48:14;102490.69;;;-8.94;73.81
55044;BME280;54902;50.420;18.854;2024-01-11T01:48:45;102492.45;;;-8.95;73.81
55044;BME280;54902;50.420;18.854;2024-01-11T01:49:16;102490.66;;;-8.96;73.82
55044;BME280;54902;50.420;18.854;2024-01-11T01:49:53;102495.07;;;-8.96;73.82
55044;BME280;54902;50.420;18.854;2024-01-11T01:50:26;102488.84;;;-8.98;73.82
55044;BME280;54902;50.420;18.854;2024-01-11T01:50:57;102489.76;;;-8.98;73.84
55044;BME280;54902;50.420;18.854;2024-01-11T01:51:29;102486.20;;;-8.98;73.83
55044;BME280;54902;50.420;18.854;2024-01-11T01:52:02;102494.13;;;-8.98;73.84
55044;BME280;54902;50.420;18.854;2024-01-11T01:52:34;102489.70;;;-8.99;73.85
55044;BME280;54902;50.420;18.854;2024-01-11T01:53:06;102487.02;;;-9.01;73.88
55044;BME280;54902;50.420;18.854;2024-01-11T01:53:37;102487.05;;;-8.99;73.87
55044;BME280;54902;50.420;18.854;2024-01-11T01:54:09;102491.45;;;-9.00;73.88
55044;BME280;54902;50.420;18.854;2024-01-11T01:54:40;102480.84;;;-9.01;73.89
55044;BME280;54902;50.420;18.854;2024-01-11T01:55:12;102474.65;;;-9.02;73.91
55044;BME280;54902;50.420;18.854;2024-01-11T01:55:45;102482.64;;;-9.00;73.91
55044;BME280;54902;50.420;18.854;2024-01-11T01:56:17;102481.75;;;-8.99;73.92
55044;BME280;54902;50.420;18.854;2024-01-11T01:56:49;102479.12;;;-8.99;73.93
55044;BME280;54902;50.420;18.854;2024-01-11T01:57:20;102487.94;;;-9.00;73.94
55044;BME280;54902;50.420;18.854;2024-01-11T01:57:51;102479.99;;;-9.00;73.96
55044;BME280;54902;50.420;18.854;2024-01-11T01:58:23;102480.88;;;-9.00;73.94
55044;BME280;54902;50.420;18.854;2024-01-11T01:58:55;102480.02;;;-8.99;73.96
55044;BME280;54902;50.420;18.854;2024-01-11T01:59:27;102471.16;;;-8.99;73.98
55044;BME280;54902;50.420;18.854;2024-01-11T02:00:00;102472.05;;;-9.00;73.97
55044;BME280;54902;50.420;18.854;2024-01-11T02:00:32;102473.81;;;-8.99;74.00
55044;BME280;54902;50.420;18.854;2024-01-11T02:01:03;102479.12;;;-8.99;74.01
55044;BME280;54902;50.420;18.854;2024-01-11T02:01:34;102477.41;;;-8.97;74.03
55044;BME280;54902;50.420;18.854;2024-01-11T02:02:06;102474.76;;;-8.97;74.04
55044;BME280;54902;50.420;18.854;2024-01-11T02:02:40;102472.11;;;-8.97;74.06
55044;BME280;54902;50.420;18.854;2024-01-11T02:03:14;102468.60;;;-8.96;74.09
55044;BME280;54902;50.420;18.854;2024-01-11T02:03:50;102470.36;;;-8.95;74.11
55044;BME280;54902;50.420;18.854;2024-01-11T02:04:22;102465.99;;;-8.95;74.06
55044;BME280;54902;50.420;18.854;2024-01-11T02:04:53;102474.80;;;-8.94;74.15
55044;BME280;54902;50.420;18.854;2024-01-11T02:05:25;102463.38;;;-8.93;74.14
55044;BME280;54902;50.420;18.854;2024-01-11T02:05:56;102474.87;;;-8.91;74.17
55044;BME280;54902;50.420;18.854;2024-01-11T02:06:29;102474.01;;;-8.90;74.20
55044;BME280;54902;50.420;18.854;2024-01-11T02:07:04;102477.58;;;-8.90;74.21
55044;BME280;54902;50.420;18.854;2024-01-11T02:07:37;102473.20;;;-8.88;74.22
55044;BME280;54902;50.420;18.854;2024-01-11T02:08:08;102482.07;;;-8.86;74.21
55044;BME280;54902;50.420;18.854;2024-01-11T02:08:43;102474.16;;;-8.84;74.25
55044;BME280;54902;50.420;18.854;2024-01-11T02:09:16;102481.23;;;-8.83;74.24
55044;BME280;54902;50.420;18.854;2024-01-11T02:09:48;102482.99;;;-8.82;74.26
55044;BME280;54902;50.420;18.854;2024-01-11T02:10:19;102474.20;;;-8.81;74.25
55044;BME280;54902;50.420;18.854;2024-01-11T02:10:50;102476.88;;;-8.80;74.25
55044;BME280;54902;50.420;18.854;2024-01-11T02:11:22;102477.80;;;-8.79;74.27
55044;BME280;54902;50.420;18.854;2024-01-11T02:11:54;102483.14;;;-8.76;74.28
55044;BME280;54902;50.420;18.854;2024-01-11T02:12:25;102473.42;;;-8.76;74.30
55044;BME280;54902;50.420;18.854;2024-01-11T02:12:56;102475.26;;;-8.73;74.29
55044;BME280;54902;50.420;18.854;2024-01-11T02:13:27;102474.40;;;-8.72;74.30
55044;BME280;54902;50.420;18.854;2024-01-11T02:13:59;102472.66;;;-8.70;74.32
55044;BME280;54902;50.420;18.854;2024-01-11T02:14:30;102471.80;;;-8.69;74.32
55044;BME280;54902;50.420;18.854;2024-01-11T02:15:01;102472.74;;;-8.67;74.32
55044;BME280;54902;50.420;18.854;2024-01-11T02:15:34;102467.47;;;-8.66;74.33
55044;BME280;54902;50.420;18.854;2024-01-11T02:16:05;102478.09;;;-8.64;74.34
55044;BME280;54902;50.420;18.854;2024-01-11T02:16:37;102474.59;;;-8.63;74.35
55044;BME280;54902;50.420;18.854;2024-01-11T02:17:08;102476.38;;;-8.62;74.34
55044;BME280;54902;50.420;18.854;2024-01-11T02:17:40;102475.52;;;-8.60;74.34
55044;BME280;54902;50.420;18.854;2024-01-11T02:18:12;102475.52;;;-8.60;74.36
55044;BME280;54902;50.420;18.854;2024-01-11T02:18:43;102468.51;;;-8.58;74.34
55044;BME280;54902;50.420;18.854;2024-01-11T02:19:17;102472.03;;;-8.58;74.34
55044;BME280;54902;50.420;18.854;2024-01-11T02:19:49;102480.06;;;-8.55;74.36
55044;BME280;54902;50.420;18.854;2024-01-11T02:20:20;102478.30;;;-8.54;74.37
55044;BME280;54902;50.420;18.854;2024-01-11T02:20:51;102475.67;;;-8.53;74.36
55044;BME280;54902;50.420;18.854;2024-01-11T02:21:23;102469.53;;;-8.52;74.44
55044;BME280;54902;50.420;18.854;2024-01-11T02:21:58;102474.84;;;-8.50;74.36
55044;BME280;54902;50.420;18.854;2024-01-11T02:22:38;102473.98;;;-8.49;74.36
55044;BME280;54902;50.420;18.854;2024-01-11T02:23:14;102471.36;;;-8.48;74.37
55044;BME280;54902;50.420;18.854;2024-01-11T02:24:13;102477.56;;;-8.46;74.38
55044;BME280;54902;50.420;18.854;2024-01-11T02:24:28;102456.38;;;-8.46;74.37
55044;BME280;54902;50.420;18.854;2024-01-11T02:24:59;102472.34;;;-8.44;74.37
55044;BME280;54902;50.420;18.854;2024-01-11T02:25:30;102469.70;;;-8.43;74.37
55044;BME280;54902;50.420;18.854;2024-01-11T02:26:01;102473.24;;;-8.42;74.39
55044;BME280;54902;50.420;18.854;2024-01-11T02:26:33;102478.54;;;-8.41;74.36
55044;BME280;54902;50.420;18.854;2024-01-11T02:27:04;102478.54;;;-8.41;74.36
55044;BME280;54902;50.420;18.854;2024-01-11T02:27:48;102479.49;;;-8.39;74.36
55044;BME280;54902;50.420;18.854;2024-01-11T02:28:19;102473.30;;;-8.38;74.38
55044;BME280;54902;50.420;18.854;2024-01-11T02:28:50;102475.09;;;-8.37;74.38
55044;BME280;54902;50.420;18.854;2024-01-11T02:29:21;102479.54;;;-8.36;74.36
55044;BME280;54902;50.420;18.854;2024-01-11T02:29:51;102483.98;;;-8.35;74.37
55044;BME280;54902;50.420;18.854;2024-01-11T02:30:22;102473.39;;;-8.35;74.37
55044;BME280;54902;50.420;18.854;2024-01-11T02:30:54;102476.06;;;-8.33;74.36
55044;BME280;54902;50.420;18.854;2024-01-11T02:31:25;102468.99;;;-8.33;74.37
55044;BME280;54902;50.420;18.854;2024-01-11T02:31:57;102474.29;;;-8.33;74.37
55044;BME280;54902;50.420;18.854;2024-01-11T02:32:29;102474.31;;;-8.31;74.36
55044;BME280;54902;50.420;18.854;2024-01-11T02:33:01;102467.28;;;-8.31;74.35
55044;BME280;54902;50.420;18.854;2024-01-11T02:33:32;102469.08;;;-8.30;74.36
55044;BME280;54902;50.420;18.854;2024-01-11T02:34:03;102466.42;;;-8.30;74.36
55044;BME280;54902;50.420;18.854;2024-01-11T02:34:35;102469.09;;;-8.28;74.35
55044;BME280;54902;50.420;18.854;2024-01-11T02:35:06;102469.09;;;-8.28;74.33
55044;BME280;54902;50.420;18.854;2024-01-11T02:35:37;102458.52;;;-8.27;74.35
55044;BME280;54902;50.420;18.854;2024-01-11T02:36:12;102456.73;;;-8.28;74.34
55044;BME280;54902;50.420;18.854;2024-01-11T02:36:44;102455.88;;;-8.27;74.34
55044;BME280;54902;50.420;18.854;2024-01-11T02:37:15;102462.05;;;-8.26;74.34
55044;BME280;54902;50.420;18.854;2024-01-11T02:37:46;102459.40;;;-8.26;74.33
55044;BME280;54902;50.420;18.854;2024-01-11T02:38:17;102460.31;;;-8.26;74.32
55044;BME280;54902;50.420;18.854;2024-01-11T02:38:48;102464.72;;;-8.25;74.34
55044;BME280;54902;50.420;18.854;2024-01-11T02:39:22;102464.72;;;-8.25;74.33
55044;BME280;54902;50.420;18.854;2024-01-11T02:39:54;102459.42;;;-8.25;74.34
55044;BME280;54902;50.420;18.854;2024-01-11T02:40:26;102464.72;;;-8.25;74.33
55044;BME280;54902;50.420;18.854;2024-01-11T02:40:57;102465.64;;;-8.24;74.32
55044;BME280;54902;50.420;18.854;2024-01-11T02:41:29;102462.07;;;-8.25;74.32
55044;BME280;54902;50.420;18.854;2024-01-11T02:42:01;102461.22;;;-8.24;74.31
55044;BME280;54902;50.420;18.854;2024-01-11T02:42:33;102460.37;;;-8.23;74.33